Time;durP1;ratioP1;P1;durP2;ratioP2;P2;SDS_P1;SDS_P2;PMS_P1;PMS_P2;Temp;Humidity;BMP_temperature;BMP_pressure;BME280_temperature;BME280_humidity;BME280_pressure;Samples;Min_cycle;Max_cycle;Signal;HPM_P1;HPM_P2
2022/01/23 00:00:04;;;;;;;12.98;4.10;;;;;;;;;;5075300;28;20043;-81
2022/01/23 00:02:33;;;;;;;10.65;3.72;;;;;;;;;;5080591;28;20142;-82
2022/01/23 00:05:05;;;;;;;16.60;5.40;;;;;;;;;;5066942;28;20052;-81
2022/01/23 00:07:33;;;;;;;15.40;7.60;;;;;;;;;;5053699;28;20036;-81
2022/01/23 00:09:59;;;;;;;13.80;6.30;;;;;;;;;;5077454;28;20040;-81
2022/01/23 00:12:28;;;;;;;16.95;5.50;;;;;;;;;;5070750;28;20349;-81
2022/01/23 00:17:39;;;;;;;11.77;5.10;;;;;;;;;;5076083;28;20048;-81
2022/01/23 00:20:11;;;;;;;14.27;3.92;;;;;;;;;;5076181;28;20044;-81
2022/01/23 00:22:42;;;;;;;14.75;3.28;;;;;;;;;;5058650;28;20532;-81
2022/01/23 00:30:41;;;;;;;13.53;3.80;;;;;;;;;;5074307;28;20092;-81
2022/01/23 00:33:07;;;;;;;11.98;3.20;;;;;;;;;;5072845;28;20306;-81
2022/01/23 00:35:35;;;;;;;10.70;3.40;;;;;;;;;;5072460;28;20309;-81
2022/01/23 00:38:01;;;;;;;15.38;3.58;;;;;;;;;;5073155;28;20441;-81
2022/01/23 00:40:28;;;;;;;13.77;3.70;;;;;;;;;;5074691;28;20052;-82
2022/01/23 00:42:55;;;;;;;8.63;3.28;;;;;;;;;;5057747;28;20365;-82
2022/01/23 00:48:00;;;;;;;10.20;3.20;;;5.90;99.90;;;;;;5097183;28;20043;-81
2022/01/23 00:50:27;;;;;;;10.52;2.95;;;;;;;;;;5083242;28;20487;-81
2022/01/23 00:52:54;;;;;;;11.13;2.35;;;;;;;;;;5073515;28;20125;-82
2022/01/23 00:55:20;;;;;;;10.48;3.53;;;;;;;;;;5097027;28;20330;-81
2022/01/23 00:57:46;;;;;;;7.22;2.53;;;;;;;;;;5097246;28;20044;-81
2022/01/23 01:00:13;;;;;;;7.80;2.90;;;;;;;;;;5087653;28;20492;-81
2022/01/23 01:02:39;;;;;;;10.70;2.70;;;;;;;;;;5095400;28;20035;-81
2022/01/23 01:05:06;;;;;;;9.68;3.22;;;6.00;99.90;;;;;;5079104;28;20055;-81
2022/01/23 01:07:32;;;;;;;10.57;2.55;;;;;;;;;;5093213;28;20051;-82
2022/01/23 01:10:04;;;;;;;8.18;2.15;;;;;;;;;;5093531;28;20629;-81
2022/01/23 01:12:40;;;;;;;5.35;2.30;;;;;;;;;;5091766;28;20044;-83
2022/01/23 01:34:10;;;;;;;11.55;3.90;;;;;;;;;;5095925;28;20043;-81
2022/01/23 01:39:02;;;;;;;11.93;4.15;;;;;;;;;;5089644;28;20040;-82
2022/01/23 01:41:28;;;;;;;11.48;4.72;;;;;;;;;;5092619;28;20046;-81
2022/01/23 01:43:57;;;;;;;15.13;4.85;;;;;;;;;;5091063;28;20040;-81
2022/01/23 01:46:23;;;;;;;19.58;4.68;;;;;;;;;;5093758;27;20113;-81
2022/01/23 01:48:50;;;;;;;14.30;5.25;;;;;;;;;;5101143;27;20108;-81
2022/01/23 01:51:17;;;;;;;16.65;6.13;;;;;;;;;;5075490;27;20096;-82
2022/01/23 01:53:57;;;;;;;23.15;6.15;;;;;;;;;;5084804;27;20093;-81
2022/01/23 01:56:24;;;;;;;20.38;5.95;;;;;;;;;;5094142;27;20040;-81
2022/01/23 02:09:46;;;;;;;26.60;7.70;;;;;;;;;;5100183;27;20047;-81
2022/01/23 02:12:53;;;;;;;27.98;7.10;;;;;;;;;;5099251;27;20055;-81
2022/01/23 02:55:47;;;;;;;20.07;5.97;;;;;;;;;;5101032;27;20060;-81
2022/01/23 02:58:16;;;;;;;25.60;6.88;;;;;;;;;;5081616;27;20126;-81
2022/01/23 03:01:02;;;;;;;24.85;6.47;;;;;;;;;;5094383;27;20100;-81
2022/01/23 03:03:28;;;;;;;16.83;4.95;;;;;;;;;;5096683;27;20036;-81
2022/01/23 03:09:51;;;;;;;18.37;5.37;;;;;;;;;;5096048;27;20036;-81
2022/01/23 03:30:14;;;;;;;8.40;2.67;;;;;;;;;;5117982;27;20047;-81
2022/01/23 03:32:44;;;;;;;5.05;1.88;;;;;;;;;;5079953;27;20038;-81
2022/01/23 03:35:10;;;;;;;5.63;1.98;;;;;;;;;;5096453;27;20050;-81
2022/01/23 03:37:37;;;;;;;550.22;97.88;;;;;;;;;;5082297;27;20519;-81
2022/01/23 03:40:06;;;;;;;7.47;1.60;;;;;;;;;;5074159;27;20044;-82
2022/01/23 03:42:35;;;;;;;4.15;1.50;;;;;;;;;;5076566;27;20043;-81
2022/01/23 03:47:42;;;;;;;9.02;2.42;;;;;;;;;;5098751;27;20043;-81
2022/01/23 03:50:10;;;;;;;8.05;2.63;;;;;;;;;;5093129;27;20097;-82
2022/01/23 03:52:36;;;;;;;4.55;1.55;;;;;;;;;;5096621;27;20065;-81
2022/01/23 03:55:04;;;;;;;10.43;2.90;;;;;;;;;;5101805;27;20159;-81
2022/01/23 03:57:30;;;;;;;13.13;3.58;;;;;;;;;;5093872;27;20051;-82
2022/01/23 03:59:57;;;;;;;17.50;3.75;;;;;;;;;;5092663;28;20036;-82
2022/01/23 04:02:23;;;;;;;12.13;3.90;;;;;;;;;;5082533;27;20031;-82
2022/01/23 04:04:49;;;;;;;9.38;3.35;;;;;;;;;;5095572;27;20039;-81
2022/01/23 04:07:21;;;;;;;15.23;4.32;;;;;;;;;;5079800;27;20482;-82
2022/01/23 04:09:49;;;;;;;16.98;4.00;;;;;;;;;;5082473;27;20365;-81
2022/01/23 04:12:46;;;;;;;16.90;4.28;;;;;;;;;;5100692;27;20046;-82
2022/01/23 04:20:32;;;;;;;171.32;8.00;;;;;;;;;;5097347;27;20051;-81
2022/01/23 04:34:10;;;;;;;150.63;8.67;;;;;;;;;;5092207;27;20087;-81
2022/01/23 05:01:49;;;;;;;41.35;9.48;;;;;;;;;;5097999;27;20089;-82
2022/01/23 05:04:19;;;;;;;40.15;9.32;;;;;;;;;;5098333;27;20445;-81
2022/01/23 05:07:09;;;;;;;53.10;9.85;;;;;;;;;;5097955;27;20073;-81
2022/01/23 05:09:33;;;;;;;36.92;8.85;;;;;;;;;;5094941;27;20040;-81
2022/01/23 05:12:04;;;;;;;18.67;4.80;;;;;;;;;;5074704;27;20035;-81
2022/01/23 05:14:41;;;;;;;31.02;7.20;;;5.30;1.00;;;;;;5078366;27;20059;-81
2022/01/23 05:17:10;;;;;;;7.63;2.75;;;;;;;;;;5098603;27;20407;-81
2022/01/23 05:19:37;;;;;;;27.60;6.45;;;;;;;;;;5076713;27;20042;-81
2022/01/23 05:25:12;;;;;;;6.15;2.03;;;;;;;;;;5079113;27;20035;-81
2022/01/23 05:27:38;;;;;;;24.13;5.55;;;;;;;;;;5094644;28;20508;-81
2022/01/23 05:30:05;;;;;;;8.98;2.75;;;;;;;;;;5087845;27;20100;-81
2022/01/23 05:32:39;;;;;;;8.85;2.83;;;;;;;;;;5079266;27;20047;-81
2022/01/23 05:35:06;;;;;;;6.50;2.42;;;;;;;;;;5081485;27;20180;-81
2022/01/23 05:37:36;;;;;;;17.52;3.83;;;;;;;;;;5095265;27;20047;-81
2022/01/23 05:40:04;;;;;;;22.38;4.28;;;5.20;1.00;;;;;;5082012;27;20031;-81
2022/01/23 05:42:30;;;;;;;19.00;4.57;;;;;;;;;;5096491;27;20099;-81
2022/01/23 05:44:56;;;;;;;26.33;5.60;;;;;;;;;;5096438;27;20039;-81
2022/01/23 05:47:23;;;;;;;24.90;6.22;;;;;;;;;;5092389;27;20100;-82
2022/01/23 05:49:49;;;;;;;17.92;5.55;;;;;;;;;;5095797;27;20126;-82
2022/01/23 05:52:15;;;;;;;23.02;5.97;;;;;;;;;;5074489;27;20047;-82
2022/01/23 05:54:41;;;;;;;27.00;7.68;;;;;;;;;;5120421;27;20096;-82
2022/01/23 05:57:07;;;;;;;24.17;6.57;;;;;;;;;;5080225;28;20057;-82
2022/01/23 05:59:34;;;;;;;13.85;3.47;;;;;;;;;;5096525;28;20118;-82
2022/01/23 06:02:00;;;;;;;19.38;5.47;;;;;;;;;;5095640;27;20431;-82
2022/01/23 06:04:27;;;;;;;22.60;5.25;;;;;;;;;;5098842;27;20046;-82
2022/01/23 06:06:55;;;;;;;18.00;4.95;;;;;;;;;;5076696;28;20489;-82
2022/01/23 06:09:22;;;;;;;26.92;7.03;;;;;;;;;;5089748;28;20043;-82
2022/01/23 06:11:49;;;;;;;29.00;7.50;;;;;;;;;;5100386;27;20503;-82
2022/01/23 06:14:15;;;;;;;28.08;7.43;;;;;;;;;;5097647;27;20043;-82
2022/01/23 06:16:42;;;;;;;26.35;7.88;;;;;;;;;;5078498;28;20042;-82
2022/01/23 06:19:08;;;;;;;34.78;8.27;;;;;;;;;;5101792;27;20043;-82
2022/01/23 06:21:34;;;;;;;20.08;7.35;;;;;;;;;;5091537;28;20038;-82
2022/01/23 06:24:14;;;;;;;30.52;8.05;;;;;;;;;;5097933;28;20049;-82
2022/01/23 06:26:45;;;;;;;33.03;7.75;;;;;;;;;;5084312;27;20453;-82
2022/01/23 06:29:11;;;;;;;25.85;7.78;;;;;;;;;;5083457;28;20123;-82
2022/01/23 06:31:38;;;;;;;30.00;8.68;;;;;;;;;;5098581;28;20130;-81
2022/01/23 06:34:06;;;;;;;32.38;8.93;;;;;;;;;;5091113;28;20128;-81
2022/01/23 06:36:33;;;;;;;34.58;7.97;;;;;;;;;;5097729;27;20039;-82
2022/01/23 06:38:59;;;;;;;38.60;8.73;;;;;;;;;;5103400;27;20043;-82
2022/01/23 06:41:25;;;;;;;64.28;10.07;;;;;;;;;;5102075;27;20528;-81
2022/01/23 06:43:52;;;;;;;65.93;10.32;;;;;;;;;;5099025;27;20083;-82
2022/01/23 06:46:18;;;;;;;47.40;8.90;;;;;;;;;;5099092;27;20051;-82
2022/01/23 06:48:44;;;;;;;36.38;7.70;;;;;;;;;;5102099;27;20496;-81
2022/01/23 06:51:11;;;;;;;30.73;6.70;;;;;;;;;;5101766;27;20659;-81
2022/01/23 06:53:37;;;;;;;39.28;8.32;;;;;;;;;;5098361;27;20040;-81
2022/01/23 06:56:03;;;;;;;42.20;8.70;;;;;;;;;;5097272;27;20036;-81
2022/01/23 06:58:29;;;;;;;63.75;11.63;;;;;;;;;;5080249;27;20043;-81
2022/01/23 07:00:55;;;;;;;44.97;11.70;;;;;;;;;;5080260;27;20051;-81
2022/01/23 07:03:21;;;;;;;38.53;10.63;;;;;;;;;;5082295;27;20503;-81
2022/01/23 07:05:47;;;;;;;41.35;8.88;;;;;;;;;;5096228;27;20395;-81
2022/01/23 07:08:14;;;;;;;14.50;4.97;;;;;;;;;;5098690;27;20122;-82
2022/01/23 07:10:40;;;;;;;30.17;8.13;;;;;;;;;;5094061;27;20051;-82
2022/01/23 07:13:06;;;;;;;34.63;9.55;;;;;;;;;;5102542;27;20047;-81
2022/01/23 07:15:32;;;;;;;52.72;11.63;;;;;;;;;;5096698;27;20039;-82
2022/01/23 07:17:58;;;;;;;34.15;10.00;;;;;;;;;;5080328;28;20046;-82
2022/01/23 07:20:24;;;;;;;25.48;8.40;;;;;;;;;;5081731;27;20043;-82
2022/01/23 07:22:50;;;;;;;35.70;10.25;;;;;;;;;;5082873;27;20107;-81
2022/01/23 07:25:16;;;;;;;33.47;8.50;;;;;;;;;;5074455;27;20047;-81
2022/01/23 07:27:49;;;;;;;33.65;9.63;;;;;;;;;;5096865;27;20126;-82
2022/01/23 07:30:29;;;;;;;41.03;10.48;;;5.20;18.10;;;;;;5092536;27;20312;-81
2022/01/23 07:32:55;;;;;;;29.58;7.70;;;;;;;;;;5076125;27;20142;-82
2022/01/23 07:35:21;;;;;;;17.50;5.78;;;;;;;;;;5094587;27;20042;-82
2022/01/23 07:37:47;;;;;;;12.95;3.80;;;;;;;;;;5101272;27;20046;-81
2022/01/23 07:40:13;;;;;;;7.53;3.28;;;;;;;;;;5077346;28;20050;-81
2022/01/23 07:42:40;;;;;;;9.65;4.40;;;;;;;;;;5099060;27;20084;-81
2022/01/23 07:45:06;;;;;;;19.55;7.97;;;;;;;;;;5085693;27;20146;-82
2022/01/23 07:47:32;;;;;;;25.83;9.45;;;;;;;;;;5100467;28;20043;-81
2022/01/23 07:50:00;;;;;;;29.00;9.73;;;;;;;;;;5094585;27;20126;-82
2022/01/23 07:52:30;;;;;;;36.17;13.23;;;;;;;;;;5079469;28;20043;-81
2022/01/23 07:54:56;;;;;;;36.03;10.70;;;;;;;;;;5077421;28;20061;-81
2022/01/23 07:57:22;;;;;;;31.38;9.93;;;;;;;;;;5097150;28;20480;-81
2022/01/23 07:59:48;;;;;;;13.90;5.47;;;;;;;;;;5100561;28;20035;-81
2022/01/23 08:02:14;;;;;;;24.17;8.43;;;;;;;;;;5097648;28;20527;-82
2022/01/23 08:04:41;;;;;;;18.85;5.80;;;;;;;;;;5095011;28;20028;-82
2022/01/23 08:07:19;;;;;;;20.15;8.10;;;;;;;;;;5095590;28;20043;-82
2022/01/23 08:09:45;;;;;;;15.10;6.18;;;;;;;;;;5097043;28;20393;-80
2022/01/23 08:12:12;;;;;;;7.03;3.42;;;;;;;;;;5096721;28;20043;-80
2022/01/23 08:14:38;;;;;;;8.93;4.80;;;;;;;;;;5090583;28;20290;-82
2022/01/23 08:17:04;;;;;;;16.05;6.80;;;;;;;;;;5078052;28;20320;-83
2022/01/23 08:19:30;;;;;;;11.95;5.95;;;;;;;;;;5095480;28;20044;-83
2022/01/23 08:21:56;;;;;;;10.75;5.45;;;;;;;;;;5096606;28;20114;-83
2022/01/23 08:24:23;;;;;;;4.57;2.25;;;;;;;;;;5095009;28;20083;-80
2022/01/23 08:26:49;;;;;;;5.75;2.38;;;;;;;;;;5101303;27;20582;-81
2022/01/23 08:29:15;;;;;;;5.85;2.90;;;;;;;;;;5095853;28;20042;-81
2022/01/23 08:31:45;;;;;;;6.10;1.70;;;;;;;;;;5117369;28;20103;-81
2022/01/23 08:34:11;;;;;;;4.68;1.17;;;;;;;;;;5092306;28;20055;-81
2022/01/23 08:36:37;;;;;;;4.30;1.63;;;;;;;;;;5100759;28;20050;-80
2022/01/23 08:39:04;;;;;;;5.10;2.60;;;;;;;;;;5096302;28;20042;-81
2022/01/23 08:44:15;;;;;;;7.35;2.30;;;;;;;;;;5094322;28;20035;-81
2022/01/23 08:46:42;;;;;;;8.75;4.47;;;;;;;;;;5034039;27;1241016;-81
2022/01/23 08:49:08;;;;;;;10.07;3.75;;;;;;;;;;5099873;27;20042;-81
2022/01/23 08:51:34;;;;;;;10.27;4.28;;;;;;;;;;5075745;27;20887;-80
2022/01/23 08:54:02;;;;;;;9.38;4.30;;;;;;;;;;5096475;27;20049;-81
2022/01/23 08:56:29;;;;;;;6.63;3.00;;;;;;;;;;5091709;27;20377;-81
2022/01/23 08:58:55;;;;;;;10.07;4.57;;;;;;;;;;5079330;27;20673;-80
2022/01/23 09:01:22;;;;;;;9.23;4.50;;;;;;;;;;5091631;27;20118;-80
2022/01/23 09:03:48;;;;;;;14.48;5.75;;;;;;;;;;5092967;27;20053;-81
2022/01/23 09:06:14;;;;;;;9.98;4.70;;;;;;;;;;5098611;27;20054;-81
2022/01/23 09:08:41;;;;;;;17.17;6.80;;;;;;;;;;5079108;27;20036;-81
2022/01/23 09:11:24;;;;;;;10.00;4.60;;;;;;;;;;5094252;27;20139;-81
2022/01/23 09:16:16;;;;;;;5.70;2.90;;;;;;;;;;5101837;27;20721;-81
2022/01/23 09:18:43;;;;;;;12.35;4.43;;;;;;;;;;5103262;27;20042;-81
2022/01/23 09:21:09;;;;;;;16.73;7.88;;;;;;;;;;5098714;27;20070;-81
2022/01/23 09:23:35;;;;;;;17.00;8.38;;;;;;;;;;5091989;27;20047;-81
2022/01/23 09:26:08;;;;;;;21.27;9.10;;;;;;;;;;5079014;27;20074;-77
2022/01/23 09:28:34;;;;;;;22.17;7.70;;;;;;;;;;5106279;27;20512;-78
2022/01/23 09:31:01;;;;;;;13.48;4.80;;;;;;;;;;5097270;27;20043;-77
2022/01/23 09:33:28;;;;;;;19.55;8.00;;;;;;;;;;5094878;27;20560;-77
2022/01/23 09:35:54;;;;;;;14.32;6.45;;;;;;;;;;5092722;27;20044;-78
2022/01/23 09:38:21;;;;;;;13.05;5.05;;;;;;;;;;5096625;27;20146;-77
2022/01/23 09:40:50;;;;;;;16.42;6.82;;;;;;;;;;5097587;27;20040;-77
2022/01/23 09:43:18;;;;;;;25.15;7.13;;;;;;;;;;5114656;27;20073;-77
2022/01/23 09:45:46;;;;;;;27.30;9.00;;;;;;;;;;5088196;28;20586;-77
2022/01/23 09:48:12;;;;;;;14.90;5.85;;;;;;;;;;5073554;28;20042;-77
2022/01/23 09:50:38;;;;;;;22.45;7.88;;;6.30;1.00;;;;;;5094039;28;20100;-77
2022/01/23 09:53:06;;;;;;;17.83;7.05;;;;;;;;;;5088695;28;20040;-77
2022/01/23 09:55:33;;;;;;;15.05;5.15;;;;;;;;;;5073238;28;20039;-77
2022/01/23 09:58:00;;;;;;;10.10;3.45;;;;;;;;;;5094608;28;20512;-76
2022/01/23 10:00:29;;;;;;;8.32;4.85;;;;;;;;;;5093374;28;20040;-77
2022/01/23 10:02:56;;;;;;;9.93;3.92;;;;;;;;;;5087517;28;20047;-78
2022/01/23 10:05:22;;;;;;;6.68;3.28;;;6.90;1.00;;;;;;5084670;28;20555;-78
2022/01/23 10:07:49;;;;;;;14.48;5.53;;;;;;;;;;5078201;28;20039;-77
2022/01/23 10:10:21;;;;;;;14.27;6.38;;;;;;;;;;5071010;28;20051;-77
2022/01/23 10:12:51;;;;;;;14.50;4.55;;;;;;;;;;5074755;28;20048;-77
2022/01/23 10:15:19;;;;;;;10.77;3.42;;;;;;;;;;5071152;28;20101;-77
2022/01/23 10:17:45;;;;;;;14.10;5.68;;;;;;;;;;5072624;28;20320;-77
2022/01/23 10:20:13;;;;;;;17.13;6.40;;;6.50;1.00;;;;;;5087211;28;20365;-78
2022/01/23 10:22:43;;;;;;;8.13;3.58;;;;;;;;;;5088285;28;20055;-77
2022/01/23 10:25:10;;;;;;;10.73;4.13;;;;;;;;;;5088883;28;20051;-77
2022/01/23 10:27:57;;;;;;;18.63;7.50;;;;;;;;;;5096397;28;20114;-77
2022/01/23 10:30:24;;;;;;;23.00;7.78;;;;;;;;;;5089103;28;20070;-77
2022/01/23 10:33:10;;;;;;;14.32;3.97;;;6.80;99.90;;;;;;5086556;28;20051;-77
2022/01/23 10:36:04;;;;;;;11.00;5.45;;;6.90;99.90;;;;;;5088193;28;20067;-77
2022/01/23 10:38:36;;;;;;;11.48;2.90;;;;;;;;;;5075797;28;20583;-77
2022/01/23 10:49:59;;;;;;;7.05;4.10;;;;;;;;;;5087279;28;20058;-77
2022/01/23 10:52:29;;;;;;;13.88;3.40;;;;;;;;;;5089914;28;20047;-77
2022/01/23 10:54:56;;;;;;;4.15;2.55;;;;;;;;;;5093970;28;20092;-77
2022/01/23 10:57:22;;;;;;;14.85;6.28;;;;;;;;;;5093936;28;20041;-77
2022/01/23 10:59:50;;;;;;;13.13;5.88;;;;;;;;;;5095166;28;20116;-77
2022/01/23 11:02:21;;;;;;;4.30;2.15;;;;;;;;;;5095387;28;20196;-77
2022/01/23 11:04:50;;;;;;;11.77;5.65;;;;;;;;;;5087630;28;20050;-77
2022/01/23 11:07:17;;;;;;;11.98;4.63;;;;;;;;;;5073560;28;20047;-77
2022/01/23 11:09:43;;;;;;;7.95;3.75;;;;;;;;;;5091909;28;20409;-77
2022/01/23 11:12:28;;;;;;;7.50;3.58;;;;;;;;;;5095893;28;20454;-77
2022/01/23 11:17:49;;;;;;;12.85;3.80;;;;;;;;;;5087693;28;20313;-77
2022/01/23 11:20:28;;;;;;;16.38;5.43;;;;;;;;;;5077613;28;20079;-77
2022/01/23 11:23:22;;;;;;;7.43;4.03;;;7.00;99.90;;;;;;5106502;27;20036;-77
2022/01/23 11:25:57;;;;;;;9.23;4.90;;;;;;;;;;5112657;27;20040;-77
2022/01/23 11:28:36;;;;;;;;;;;6.90;99.90;;;;;;5103392;27;20035;-77
2022/01/23 11:31:04;;;;;;;5.90;3.20;;;;;;;;;;5097069;28;20411;-77
2022/01/23 11:33:30;;;;;;;13.80;4.38;;;;;;;;;;5095517;28;20044;-77
2022/01/23 11:35:56;;;;;;;8.63;4.63;;;;;;;;;;5098734;28;20035;-77
2022/01/23 11:38:24;;;;;;;14.02;7.18;;;;;;;;;;5097277;28;20531;-77
2022/01/23 11:54:37;;;;;;;7.43;3.28;;;;;;;;;;5096366;28;20048;-77
2022/01/23 11:57:03;;;;;;;5.90;3.28;;;;;;;;;;5095960;28;20073;-77
2022/01/23 11:59:42;;;;;;;6.35;2.95;;;7.10;99.90;;;;;;5091821;28;20094;-77
2022/01/23 12:02:12;;;;;;;7.63;4.30;;;;;;;;;;5094956;28;20040;-77
2022/01/23 12:04:39;;;;;;;9.38;4.97;;;;;;;;;;5096746;28;20054;-77
2022/01/23 12:07:10;;;;;;;15.00;6.05;;;7.20;99.90;;;;;;5079597;28;20070;-77
2022/01/23 12:09:37;;;;;;;3.75;1.95;;;;;;;;;;5077330;28;20039;-78
2022/01/23 12:12:07;;;;;;;14.25;4.20;;;;;;;;;;5098483;28;20093;-77
2022/01/23 12:17:08;;;;;;;5.13;2.83;;;;;;;;;;5096731;28;20055;-78
2022/01/23 12:19:46;;;;;;;6.10;3.25;;;;;;;;;;5081991;28;20043;-78
2022/01/23 12:22:21;;;;;;;6.05;3.42;;;;;;;;;;5093187;28;20036;-78
2022/01/23 12:24:48;;;;;;;8.60;5.13;;;;;;;;;;5088600;28;20035;-78
2022/01/23 12:27:21;;;;;;;9.55;4.43;;;;;;;;;;5091929;27;20508;-78
2022/01/23 12:29:47;;;;;;;7.30;2.55;;;;;;;;;;5096016;28;20708;-77
2022/01/23 12:32:27;;;;;;;9.75;3.75;;;;;;;;;;5093469;28;20039;-78
2022/01/23 12:34:53;;;;;;;5.88;3.00;;;;;;;;;;5087418;28;20043;-77
2022/01/23 12:37:19;;;;;;;4.93;2.42;;;;;;;;;;5092630;28;20094;-78
2022/01/23 12:39:46;;;;;;;8.20;3.83;;;;;;;;;;5091292;28;20097;-78
2022/01/23 12:42:12;;;;;;;8.15;4.28;;;;;;;;;;5090365;28;20063;-78
2022/01/23 12:44:39;;;;;;;5.03;2.47;;;;;;;;;;5070516;28;20039;-78
2022/01/23 12:47:26;;;;;;;26.45;2.55;;;;;;;;;;5094610;28;20070;-78
2022/01/23 12:49:52;;;;;;;5.60;2.90;;;;;;;;;;5076324;28;20499;-78
2022/01/23 12:52:19;;;;;;;6.80;4.10;;;;;;;;;;5091918;28;20054;-78
2022/01/23 12:54:52;;;;;;;6.05;2.70;;;;;;;;;;5079901;28;20048;-78
2022/01/23 12:57:20;;;;;;;5.35;2.90;;;;;;;;;;5091837;28;20083;-78
2022/01/23 12:59:53;;;;;;;5.88;2.95;;;;;;;;;;5070739;28;20040;-78
2022/01/23 13:02:21;;;;;;;4.53;2.17;;;;;;;;;;5094022;28;20028;-78
2022/01/23 13:04:48;;;;;;;11.15;3.47;;;;;;;;;;5095586;28;20062;-78
2022/01/23 13:07:29;;;;;;;8.35;3.05;;;;;;;;;;5094276;28;20097;-78
2022/01/23 13:10:06;;;;;;;4.80;2.83;;;;;;;;;;5093919;28;20048;-78
2022/01/23 13:31:09;;;;;;;8.63;2.55;;;;;;;;;;5091172;28;20040;-75
2022/01/23 13:33:38;;;;;;;3.63;2.55;;;;;;;;;;5091009;28;20047;-75
2022/01/23 13:36:07;;;;;;;5.57;2.58;;;;;;;;;;5096291;28;20561;-75
2022/01/23 13:38:35;;;;;;;6.70;3.40;;;;;;;;;;5094746;28;20127;-75
2022/01/23 13:41:10;;;;;;;6.55;2.65;;;;;;;;;;5091626;28;20098;-75
2022/01/23 13:59:53;;;;;;;4.65;2.50;;;;;;;;;;5086842;28;20051;-77
2022/01/23 14:02:26;;;;;;;9.38;5.38;;;;;;;;;;5072118;28;20042;-76
2022/01/23 14:05:11;;;;;;;11.32;4.90;;;;;;;;;;5090654;28;20082;-77
2022/01/23 14:07:37;;;;;;;;;;;;;;;;;;5072186;28;20477;-77
2022/01/23 14:10:14;;;;;;;8.50;4.13;;;;;;;;;;5091732;28;19924;-77
2022/01/23 14:12:41;;;;;;;6.55;3.50;;;;;;;;;;5076849;28;20074;-77
2022/01/23 14:15:12;;;;;;;2.83;1.83;;;;;;;;;;5071630;28;20044;-77
2022/01/23 14:17:39;;;;;;;9.85;6.38;;;;;;;;;;5086042;28;20122;-76
2022/01/23 14:20:17;;;;;;;12.05;6.15;;;;;;;;;;5078453;28;20224;-77
2022/01/23 14:22:46;;;;;;;8.48;4.22;;;7.20;99.90;;;;;;5085755;28;20044;-76
2022/01/23 14:25:26;;;;;;;11.18;5.68;;;;;;;;;;5091391;28;20059;-77
2022/01/23 14:28:06;;;;;;;11.68;6.65;;;;;;;;;;5091756;28;20463;-77
2022/01/23 14:30:33;;;;;;;14.00;6.18;;;;;;;;;;5092392;28;20390;-77
2022/01/23 14:33:11;;;;;;;11.73;5.55;;;;;;;;;;5076554;28;20040;-77
2022/01/23 14:35:37;;;;;;;13.40;7.70;;;;;;;;;;5089714;28;20043;-77
2022/01/23 14:38:10;;;;;;;9.23;6.22;;;;;;;;;;5093751;28;20043;-76
2022/01/23 14:40:37;;;;;;;7.13;4.50;;;;;;;;;;5094807;28;20047;-76
2022/01/23 14:43:11;;;;;;;7.57;3.65;;;7.00;99.90;;;;;;5090699;28;20031;-76
2022/01/23 14:45:37;;;;;;;9.10;3.85;;;;;;;;;;5094363;28;20043;-76
2022/01/23 14:48:05;;;;;;;3.35;1.85;;;;;;;;;;5089247;28;20182;-76
2022/01/23 14:50:34;;;;;;;7.13;3.03;;;;;;;;;;5080022;28;20043;-77
2022/01/23 14:53:20;;;;;;;4.78;2.05;;;;;;;;;;5090473;28;20039;-76
2022/01/23 14:55:48;;;;;;;6.22;2.85;;;;;;;;;;5098283;27;20475;-77
2022/01/23 14:58:18;;;;;;;6.72;3.03;;;6.90;99.90;;;;;;5098839;27;20454;-76
2022/01/23 15:00:44;;;;;;;5.38;2.65;;;;;;;;;;5080473;27;20036;-79
2022/01/23 15:03:11;;;;;;;11.95;3.38;;;6.50;99.90;;;;;;5097099;27;20145;-76
2022/01/23 15:05:38;;;;;;;7.80;2.63;;;;;;;;;;5072653;27;20035;-77
2022/01/23 15:08:07;;;;;;;6.28;2.47;;;;;;;;;;5100912;27;20048;-77
2022/01/23 15:10:34;;;;;;;13.80;7.38;;;;;;;;;;5098061;27;20102;-77
2022/01/23 15:13:00;;;;;;;26.77;9.35;;;;;;;;;;5095565;27;20074;-77
2022/01/23 15:15:27;;;;;;;22.50;9.90;;;;;;;;;;5096639;27;20051;-77
2022/01/23 15:17:54;;;;;;;22.40;10.13;;;;;;;;;;5077862;27;20134;-77
2022/01/23 15:20:20;;;;;;;10.40;5.25;;;;;;;;;;5102069;27;20054;-77
2022/01/23 15:22:47;;;;;;;5.10;2.22;;;;;;;;;;5096887;27;20078;-77
2022/01/23 15:25:15;;;;;;;7.95;3.75;;;;;;;;;;5092946;27;20666;-77
2022/01/23 15:27:41;;;;;;;5.22;2.65;;;;;;;;;;5081491;27;20043;-77
2022/01/23 15:30:09;;;;;;;6.10;3.42;;;;;;;;;;5099765;27;20054;-77
2022/01/23 15:32:35;;;;;;;8.07;3.33;;;;;;;;;;5098533;27;20131;-78
2022/01/23 15:35:02;;;;;;;11.65;5.80;;;;;;;;;;5095565;27;20070;-77
2022/01/23 15:37:28;;;;;;;10.43;5.47;;;;;;;;;;5085722;27;20147;-77
2022/01/23 15:39:54;;;;;;;9.35;4.80;;;;;;;;;;5102594;27;20043;-77
2022/01/23 15:42:20;;;;;;;9.90;5.13;;;;;;;;;;5080093;27;20108;-77
2022/01/23 15:44:47;;;;;;;14.57;5.90;;;;;;;;;;5093753;27;20551;-77
2022/01/23 15:47:13;;;;;;;10.57;5.35;;;;;;;;;;5096827;27;20059;-77
2022/01/23 15:49:39;;;;;;;11.77;5.70;;;;;;;;;;5082265;27;20085;-76
2022/01/23 15:52:05;;;;;;;13.45;5.25;;;;;;;;;;5097996;27;20127;-76
2022/01/23 15:54:34;;;;;;;11.52;5.75;;;;;;;;;;5092432;27;20049;-80
2022/01/23 15:57:01;;;;;;;11.20;5.32;;;;;;;;;;5094687;27;20438;-81
2022/01/23 15:59:27;;;;;;;10.65;6.57;;;;;;;;;;5098378;27;20056;-81
2022/01/23 16:01:53;;;;;;;7.72;3.70;;;;;;;;;;5096061;27;20091;-81
2022/01/23 16:04:20;;;;;;;8.75;4.97;;;;;;;;;;5103771;27;20076;-81
2022/01/23 16:06:46;;;;;;;11.05;5.68;;;;;;;;;;5097400;27;20808;-81
2022/01/23 16:09:13;;;;;;;11.60;5.60;;;;;;;;;;5106385;27;20039;-81
2022/01/23 16:11:39;;;;;;;9.70;3.72;;;;;;;;;;5104567;27;20035;-80
2022/01/23 16:14:05;;;;;;;9.02;4.75;;;;;;;;;;5078225;27;20070;-80
2022/01/23 16:16:31;;;;;;;7.85;4.55;;;;;;;;;;5102098;27;20096;-80
2022/01/23 16:18:58;;;;;;;9.32;4.70;;;;;;;;;;5098015;27;20038;-80
2022/01/23 16:21:25;;;;;;;12.82;5.57;;;;;;;;;;5081583;27;20454;-80
2022/01/23 16:23:51;;;;;;;14.60;6.63;;;;;;;;;;5102069;27;20118;-80
2022/01/23 16:26:17;;;;;;;11.40;6.38;;;;;;;;;;5094648;27;20042;-80
2022/01/23 16:28:44;;;;;;;11.98;6.28;;;;;;;;;;5081429;27;20043;-81
2022/01/23 16:31:10;;;;;;;12.43;5.88;;;;;;;;;;5093546;27;20385;-81
2022/01/23 16:33:38;;;;;;;11.98;5.53;;;;;;;;;;5088298;27;20051;-80
2022/01/23 16:36:06;;;;;;;12.02;5.78;;;;;;;;;;5098914;27;20687;-81
2022/01/23 16:38:32;;;;;;;7.15;4.03;;;;;;;;;;5102956;27;20493;-81
2022/01/23 16:40:59;;;;;;;8.45;3.95;;;;;;;;;;5094185;27;20039;-81
2022/01/23 16:43:26;;;;;;;6.43;3.03;;;;;;;;;;5077959;27;20039;-81
2022/01/23 16:45:53;;;;;;;10.13;3.88;;;;;;;;;;5094729;27;20047;-80
2022/01/23 16:48:19;;;;;;;9.52;4.13;;;;;;;;;;5093301;27;20638;-80
2022/01/23 16:50:45;;;;;;;7.00;3.38;;;;;;;;;;5083985;28;20539;-80
2022/01/23 16:53:11;;;;;;;4.03;2.38;;;;;;;;;;5095503;27;20039;-81
2022/01/23 16:55:38;;;;;;;4.10;2.28;;;;;;;;;;5096797;27;20077;-80
2022/01/23 16:58:04;;;;;;;7.57;4.50;;;;;;;;;;5101141;27;20066;-80
2022/01/23 17:00:31;;;;;;;8.00;4.63;;;6.10;99.90;;;;;;5097741;27;20043;-80
2022/01/23 17:02:59;;;;;;;7.43;3.70;;;;;;;;;;5087445;27;20042;-80
2022/01/23 17:05:25;;;;;;;6.70;2.75;;;;;;;;;;5079555;27;20071;-81
2022/01/23 17:07:51;;;;;;;5.65;3.25;;;;;;;;;;5101361;27;20103;-80
2022/01/23 17:10:18;;;;;;;12.63;4.05;;;;;;;;;;5080773;27;20046;-81
2022/01/23 17:12:44;;;;;;;7.15;3.17;;;;;;;;;;5101391;27;20563;-80
2022/01/23 17:15:10;;;;;;;10.32;4.10;;;;;;;;;;5094056;27;20054;-81
2022/01/23 17:17:37;;;;;;;7.85;4.43;;;;;;;;;;5078135;28;20050;-80
2022/01/23 17:20:03;;;;;;;7.07;3.80;;;;;;;;;;5078918;27;20044;-80
2022/01/23 17:22:29;;;;;;;7.15;3.63;;;;;;;;;;5082125;27;20141;-81
2022/01/23 17:24:55;;;;;;;8.68;4.97;;;;;;;;;;5096860;27;20516;-81
2022/01/23 17:27:23;;;;;;;3.75;1.60;;;;;;;;;;5078601;27;20039;-79
2022/01/23 17:29:50;;;;;;;2.88;1.67;;;;;;;;;;5097142;27;20050;-80
2022/01/23 17:32:20;;;;;;;5.47;2.60;;;;;;;;;;5100682;27;20047;-80
2022/01/23 17:34:46;;;;;;;7.43;4.35;;;;;;;;;;5094081;27;20055;-80
2022/01/23 17:37:13;;;;;;;2.78;1.55;;;;;;;;;;5096951;27;20515;-80
2022/01/23 17:39:39;;;;;;;4.18;1.73;;;;;;;;;;5099800;27;20065;-80
2022/01/23 17:42:07;;;;;;;3.45;2.15;;;;;;;;;;5095398;27;20035;-80
2022/01/23 17:44:36;;;;;;;4.20;2.00;;;;;;;;;;5097376;27;20103;-81
2022/01/23 17:47:19;;;;;;;8.00;4.28;;;;;;;;;;5089295;27;20131;-80
2022/01/23 17:49:54;;;;;;;3.28;2.17;;;;;;;;;;5094568;27;20241;-79
2022/01/23 17:52:21;;;;;;;3.78;2.22;;;;;;;;;;5095275;27;20043;-79
2022/01/23 17:54:47;;;;;;;2.67;1.92;;;;;;;;;;5077058;27;20039;-79
2022/01/23 17:57:14;;;;;;;3.83;1.80;;;;;;;;;;5096998;27;20046;-79
2022/01/23 17:59:40;;;;;;;4.55;2.92;;;;;;;;;;5097999;28;20047;-79
2022/01/23 18:02:06;;;;;;;7.43;3.65;;;;;;;;;;5093852;27;20419;-79
2022/01/23 18:04:33;;;;;;;10.15;3.55;;;;;;;;;;5092252;27;20043;-79
2022/01/23 18:07:06;;;;;;;7.55;2.47;;;;;;;;;;5091882;27;20031;-79
2022/01/23 18:09:33;;;;;;;6.15;3.10;;;;;;;;;;5079863;27;20437;-79
2022/01/23 18:11:59;;;;;;;8.77;3.83;;;;;;;;;;5097926;27;20094;-79
2022/01/23 18:14:25;;;;;;;5.68;3.25;;;;;;;;;;5093648;28;21152;-79
2022/01/23 18:16:51;;;;;;;8.15;3.45;;;;;;;;;;5097314;27;20122;-80